地図

経路データ

SID SEASON NUMBER BASIN SUBBASIN NAME ISO_TIME NATURE LAT LON WMO_WIND WMO_PRES WMO_AGENCY TRACK_TYPE DIST2LAND LANDFALL IFLAG USA_AGENCY USA_ATCF_ID USA_LAT USA_LON USA_RECORD USA_STATUS USA_WIND USA_PRES USA_SSHS USA_R34_NE USA_R34_SE USA_R34_SW USA_R34_NW USA_R50_NE USA_R50_SE USA_R50_SW USA_R50_NW USA_R64_NE USA_R64_SE USA_R64_SW USA_R64_NW USA_POCI USA_ROCI USA_RMW USA_EYE TOKYO_LAT TOKYO_LON TOKYO_GRADE TOKYO_WIND TOKYO_PRES TOKYO_R50_DIR TOKYO_R50_LONG TOKYO_R50_SHORT TOKYO_R30_DIR TOKYO_R30_LONG TOKYO_R30_SHORT TOKYO_LAND CMA_LAT CMA_LON CMA_CAT CMA_WIND CMA_PRES HKO_LAT HKO_LON HKO_CAT HKO_WIND HKO_PRES NEWDELHI_LAT NEWDELHI_LON NEWDELHI_GRADE NEWDELHI_WIND NEWDELHI_PRES NEWDELHI_CI NEWDELHI_DP NEWDELHI_POCI REUNION_LAT REUNION_LON REUNION_TYPE REUNION_WIND REUNION_PRES REUNION_TNUM REUNION_CI REUNION_RMW REUNION_R34_NE REUNION_R34_SE REUNION_R34_SW REUNION_R34_NW REUNION_R50_NE REUNION_R50_SE REUNION_R50_SW REUNION_R50_NW REUNION_R64_NE REUNION_R64_SE REUNION_R64_SW REUNION_R64_NW BOM_LAT BOM_LON BOM_TYPE BOM_WIND BOM_PRES BOM_TNUM BOM_CI BOM_RMW BOM_R34_NE BOM_R34_SE BOM_R34_SW BOM_R34_NW BOM_R50_NE BOM_R50_SE BOM_R50_SW BOM_R50_NW BOM_R64_NE BOM_R64_SE BOM_R64_SW BOM_R64_NW BOM_ROCI BOM_POCI BOM_EYE BOM_POS_METHOD BOM_PRES_METHOD NADI_LAT NADI_LON NADI_CAT NADI_WIND NADI_PRES WELLINGTON_LAT WELLINGTON_LON WELLINGTON_WIND WELLINGTON_PRES DS824_LAT DS824_LON DS824_STAGE DS824_WIND DS824_PRES TD9636_LAT TD9636_LON TD9636_STAGE TD9636_WIND TD9636_PRES TD9635_LAT TD9635_LON TD9635_WIND TD9635_PRES TD9635_ROCI NEUMANN_LAT NEUMANN_LON NEUMANN_CLASS NEUMANN_WIND NEUMANN_PRES MLC_LAT MLC_LON MLC_CLASS MLC_WIND MLC_PRES USA_GUST BOM_GUST BOM_GUST_PER REUNION_GUST REUNION_GUST_PER USA_SEAHGT USA_SEARAD_NE USA_SEARAD_SE USA_SEARAD_SW USA_SEARAD_NW STORM_SPEED STORM_DIR
1948239N20299 1948 54 NA NA NOT_NAMED 1948-08-26 00:00:00 TS 20.4000 -60.6000 55 hurdat_atl main 570 542 O_____________ hurdat_atl AL031948 20.4000 -60.6000 TS 55 0 13 314
1948239N20299 1948 54 NA NA NOT_NAMED 1948-08-26 03:00:00 TS 20.8478 -61.0995 main 542 529 P_____________ AL031948 20.8478 -61.0995 TS 57 0 13 314
1948239N20299 1948 54 NA NA NOT_NAMED 1948-08-26 06:00:00 TS 21.3000 -61.6000 60 hurdat_atl main 529 519 O_____________ hurdat_atl AL031948 21.3000 -61.6000 TS 60 0 13 314
1948239N20299 1948 54 NA NA NOT_NAMED 1948-08-26 09:00:00 TS 21.7573 -62.1002 main 527 520 P_____________ AL031948 21.7573 -62.1002 TS 62 0 13 314
1948239N20299 1948 54 NA NA NOT_NAMED 1948-08-26 12:00:00 TS 22.2000 -62.6000 65 hurdat_atl main 527 521 O_____________ hurdat_atl AL031948 22.2000 -62.6000 HU 65 1 13 312
1948239N20299 1948 54 NA NA NOT_NAMED 1948-08-26 15:00:00 TS 22.6074 -63.1078 main 537 537 P_____________ AL031948 22.6074 -63.1078 HU 67 1 12 311
1948239N20299 1948 54 NA NA NOT_NAMED 1948-08-26 18:00:00 TS 23.0000 -63.6000 70 hurdat_atl main 554 551 O_____________ hurdat_atl AL031948 23.0000 -63.6000 HU 70 1 12 312
1948239N20299 1948 54 NA NA NOT_NAMED 1948-08-26 21:00:00 TS 23.3923 -64.0579 main 580 580 P_____________ AL031948 23.3923 -64.0579 HU 72 1 12 314
1948239N20299 1948 54 NA NA NOT_NAMED 1948-08-27 00:00:00 TS 23.8000 -64.5000 75 hurdat_atl main 614 614 O_____________ hurdat_atl AL031948 23.8000 -64.5000 HU 75 1 12 316
1948239N20299 1948 54 NA NA NOT_NAMED 1948-08-27 03:00:00 TS 24.2499 -64.9502 main 651 651 P_____________ AL031948 24.2499 -64.9502 HU 77 1 12 318
1948239N20299 1948 54 NA NA NOT_NAMED 1948-08-27 06:00:00 TS 24.7000 -65.4000 80 hurdat_atl main 704 704 O_____________ hurdat_atl AL031948 24.7000 -65.4000 HU 80 1 12 316
1948239N20299 1948 54 NA NA NOT_NAMED 1948-08-27 09:00:00 TS 25.1074 -65.8504 main 736 736 P_____________ AL031948 25.1074 -65.8504 HU 82 1 11 314
1948239N20299 1948 54 NA NA NOT_NAMED 1948-08-27 12:00:00 TS 25.5000 -66.3000 85 hurdat_atl main 758 754 O_____________ hurdat_atl AL031948 25.5000 -66.3000 HU 85 2 12 315
1948239N20299 1948 54 NA NA NOT_NAMED 1948-08-27 15:00:00 TS 25.9224 -66.7500 main 776 776 P_____________ AL031948 25.9224 -66.7500 HU 87 2 11 315
1948239N20299 1948 54 NA NA NOT_NAMED 1948-08-27 18:00:00 TS 26.3000 -67.2000 90 hurdat_atl main 801 798 O_____________ hurdat_atl AL031948 26.3000 -67.2000 HU 90 2 10 309
1948239N20299 1948 54 NA NA NOT_NAMED 1948-08-27 21:00:00 TS 26.5799 -67.6578 main 808 797 P_____________ AL031948 26.5799 -67.6578 HU 92 2 9 302
1948239N20299 1948 54 NA NA NOT_NAMED 1948-08-28 00:00:00 TS 26.8000 -68.1000 95 hurdat_atl main 799 789 O_____________ hurdat_atl AL031948 26.8000 -68.1000 HU 95 2 9 299
1948239N20299 1948 54 NA NA NOT_NAMED 1948-08-28 03:00:00 TS 27.0073 -68.5078 main 792 784 P_____________ AL031948 27.0073 -68.5078 HU 95 2 8 299
1948239N20299 1948 54 NA NA NOT_NAMED 1948-08-28 06:00:00 TS 27.2000 -68.9000 95 hurdat_atl main 788 782 O_____________ hurdat_atl AL031948 27.2000 -68.9000 HU 95 2 8 299
1948239N20299 1948 54 NA NA NOT_NAMED 1948-08-28 09:00:00 TS 27.3923 -69.2928 main 787 782 P_____________ AL031948 27.3923 -69.2928 HU 97 3 8 299
1948239N20299 1948 54 NA NA NOT_NAMED 1948-08-28 12:00:00 TS 27.6000 -69.7000 100 hurdat_atl main 789 784 O_____________ hurdat_atl AL031948 27.6000 -69.7000 HU 100 3 9 301
1948239N20299 1948 54 NA NA NOT_NAMED 1948-08-28 15:00:00 TS 27.8424 -70.1426 main 793 793 P_____________ AL031948 27.8424 -70.1426 HU 102 3 9 302
1948239N20299 1948 54 NA NA NOT_NAMED 1948-08-28 18:00:00 TS 28.1000 -70.6000 105 hurdat_atl main 807 781 O_____________ hurdat_atl AL031948 28.1000 -70.6000 HU 105 3 10 303
1948239N20299 1948 54 NA NA NOT_NAMED 1948-08-28 21:00:00 TS 28.3649 -71.0575 main 777 753 P_____________ AL031948 28.3649 -71.0575 HU 105 3 9 302
1948239N20299 1948 54 NA NA NOT_NAMED 1948-08-29 00:00:00 TS 28.6000 -71.5000 105 hurdat_atl main 753 731 O_____________ hurdat_atl AL031948 28.6000 -71.5000 HU 105 3 9 299
1948239N20299 1948 54 NA NA NOT_NAMED 1948-08-29 03:00:00 TS 28.7723 -71.9077 main 731 705 P_____________ AL031948 28.7723 -71.9077 HU 105 3 8 293
1948239N20299 1948 54 NA NA NOT_NAMED 1948-08-29 06:00:00 TS 28.9000 -72.3000 105 hurdat_atl main 705 681 O_____________ hurdat_atl AL031948 28.9000 -72.3000 HU 105 3 7 288
1948239N20299 1948 54 NA NA NOT_NAMED 1948-08-29 09:00:00 TS 28.9924 -72.7003 main 681 658 P_____________ AL031948 28.9924 -72.7003 HU 102 3 7 286
1948239N20299 1948 54 NA NA NOT_NAMED 1948-08-29 12:00:00 TS 29.1000 -73.1000 100 hurdat_atl main 658 645 O_____________ hurdat_atl AL031948 29.1000 -73.1000 HU 100 3 8 292
1948239N20299 1948 54 NA NA NOT_NAMED 1948-08-29 15:00:00 TS 29.2775 -73.5150 main 646 625 P_____________ AL031948 29.2775 -73.5150 HU 100 3 8 300
1948239N20299 1948 54 NA NA NOT_NAMED 1948-08-29 18:00:00 TS 29.5000 -73.9000 100 hurdat_atl main 625 589 O_____________ hurdat_atl AL031948 29.5000 -73.9000 HU 100 3 8 306
1948239N20299 1948 54 NA NA NOT_NAMED 1948-08-29 21:00:00 TS 29.7349 -74.2301 main 589 545 P_____________ AL031948 29.7349 -74.2301 HU 97 3 7 314
1948239N20299 1948 54 NA NA NOT_NAMED 1948-08-30 00:00:00 TS 30.0000 -74.5000 95 hurdat_atl main 545 507 O_____________ hurdat_atl AL031948 30.0000 -74.5000 HU 95 2 7 323
1948239N20299 1948 54 NA NA NOT_NAMED 1948-08-30 03:00:00 TS 30.2924 -74.7226 main 507 469 P_____________ AL031948 30.2924 -74.7226 HU 95 2 7 330
1948239N20299 1948 54 NA NA NOT_NAMED 1948-08-30 06:00:00 TS 30.6000 -74.9000 95 hurdat_atl main 469 431 O_____________ hurdat_atl AL031948 30.6000 -74.9000 HU 95 2 7 333
1948239N20299 1948 54 NA NA NOT_NAMED 1948-08-30 09:00:00 TS 30.8925 -75.0725 main 431 399 P_____________ AL031948 30.8925 -75.0725 HU 92 2 7 337
1948239N20299 1948 54 NA NA NOT_NAMED 1948-08-30 12:00:00 TS 31.2000 -75.2000 90 hurdat_atl main 399 367 O_____________ hurdat_atl AL031948 31.2000 -75.2000 HU 90 2 7 343
1948239N20299 1948 54 NA NA NOT_NAMED 1948-08-30 15:00:00 TS 31.5424 -75.3022 main 367 331 P_____________ AL031948 31.5424 -75.3022 HU 87 2 7 353
1948239N20299 1948 54 NA NA NOT_NAMED 1948-08-30 18:00:00 TS 31.9000 -75.3000 85 hurdat_atl main 331 303 O_____________ hurdat_atl AL031948 31.9000 -75.3000 HU 85 2 7 11
1948239N20299 1948 54 NA NA NOT_NAMED 1948-08-30 21:00:00 TS 32.2500 -75.1452 main 297 276 P_____________ AL031948 32.2500 -75.1452 HU 82 1 8 26
1948239N20299 1948 54 NA NA NOT_NAMED 1948-08-31 00:00:00 TS 32.6000 -74.9000 80 hurdat_atl main 276 254 O_____________ hurdat_atl AL031948 32.6000 -74.9000 HU 80 1 8 29
1948239N20299 1948 54 NA NA NOT_NAMED 1948-08-31 03:00:00 TS 32.9346 -74.7016 main 260 248 P_____________ AL031948 32.9346 -74.7016 HU 77 1 8 31
1948239N20299 1948 54 NA NA NOT_NAMED 1948-08-31 06:00:00 TS 33.3000 -74.4000 75 hurdat_atl main 248 247 O_____________ hurdat_atl AL031948 33.3000 -74.4000 HU 75 1 10 39
1948239N20299 1948 54 NA NA NOT_NAMED 1948-08-31 09:00:00 TS 33.7195 -73.9391 main 257 251 P_____________ AL031948 33.7195 -73.9391 HU 72 1 13 45
1948239N20299 1948 54 NA NA NOT_NAMED 1948-08-31 12:00:00 TS 34.2000 -73.3000 70 hurdat_atl main 267 267 O_____________ hurdat_atl AL031948 34.2000 -73.3000 HU 70 1 15 49
1948239N20299 1948 54 NA NA NOT_NAMED 1948-08-31 15:00:00 TS 34.6880 -72.5809 main 289 289 P_____________ AL031948 34.6880 -72.5809 HU 70 1 18 52
1948239N20299 1948 54 NA NA NOT_NAMED 1948-08-31 18:00:00 TS 35.3000 -71.6000 70 hurdat_atl main 356 356 O_____________ hurdat_atl AL031948 35.3000 -71.6000 HU 70 1 23 53
1948239N20299 1948 54 NA NA NOT_NAMED 1948-08-31 21:00:00 TS 36.0817 -70.2901 main 468 468 P_____________ AL031948 36.0817 -70.2901 HU 67 1 29 54
1948239N20299 1948 54 NA NA NOT_NAMED 1948-09-01 00:00:00 TS 37.0000 -68.7000 65 hurdat_atl main 529 489 O_____________ hurdat_atl AL031948 37.0000 -68.7000 HU 65 1 33 55
1948239N20299 1948 54 NA NA NOT_NAMED 1948-09-01 03:00:00 TS 37.9787 -66.9151 main 488 486 P_____________ AL031948 37.9787 -66.9151 HU 62 0 35 55
1948239N20299 1948 54 NA NA NOT_NAMED 1948-09-01 06:00:00 TS 39.0000 -65.1000 60 hurdat_atl main 500 424 O_____________ hurdat_atl AL031948 39.0000 -65.1000 TS 60 0 34 53
1948239N20299 1948 54 NA NA NOT_NAMED 1948-09-01 09:00:00 TS 40.0051 -63.4714 main 416 385 P_____________ AL031948 40.0051 -63.4714 TS 60 0 31 50
1948239N20299 1948 54 NA NA NOT_NAMED 1948-09-01 12:00:00 ET 41.0000 -62.0000 60 hurdat_atl main 386 353 O_____________ hurdat_atl AL031948 41.0000 -62.0000 EX 60 -4 29 48
1948239N20299 1948 54 NA NA NOT_NAMED 1948-09-01 15:00:00 ET 41.9409 -60.6130 main 356 295 P_____________ AL031948 41.9409 -60.6130 EX 60 -4 27 46
1948239N20299 1948 54 NA NA NOT_NAMED 1948-09-01 18:00:00 ET 42.9000 -59.4000 60 hurdat_atl main 289 254 O_____________ hurdat_atl AL031948 42.9000 -59.4000 EX 60 -4 26 41
1948239N20299 1948 54 NA NA NOT_NAMED 1948-09-01 21:00:00 ET 43.8664 -58.3049 main 250 225 P_____________ AL031948 43.8664 -58.3049 EX 57 -4 25 34
1948239N20299 1948 54 NA NA NOT_NAMED 1948-09-02 00:00:00 ET 45.0000 -57.4000 55 hurdat_atl main 227 94 O_____________ hurdat_atl AL031948 45.0000 -57.4000 EX 55 -4 28 24
1948239N20299 1948 54 NA NA NOT_NAMED 1948-09-02 03:00:00 ET 46.4304 -56.6919 main 85 0 P_____________ AL031948 46.4304 -56.6919 EX 55 -4 31 18
1948239N20299 1948 54 NA NA NOT_NAMED 1948-09-02 06:00:00 ET 48.0000 -56.0000 55 hurdat_atl main 0 0 O_____________ hurdat_atl AL031948 48.0000 -56.0000 EX 55 -4 33 19
1948239N20299 1948 54 NA NA NOT_NAMED 1948-09-02 09:00:00 ET 49.5900 -55.0488 main 26 26 P_____________ AL031948 49.5900 -55.0488 EX 52 -4 33 23
1948239N20299 1948 54 NA NA NOT_NAMED 1948-09-02 12:00:00 ET 51.0000 -54.0000 50 hurdat_atl main 113 113 O_____________ hurdat_atl AL031948 51.0000 -54.0000 EX 50 -4 28 28
1948239N20299 1948 54 NA NA NOT_NAMED 1948-09-02 15:00:00 ET 52.0488 -52.9944 main 179 179 P_____________ AL031948 52.0488 -52.9944 EX 50 -4 22 34
1948239N20299 1948 54 NA NA NOT_NAMED 1948-09-02 18:00:00 ET 52.8000 -52.0000 50 hurdat_atl main 245 245 O_____________ hurdat_atl AL031948 52.8000 -52.0000 EX 50 -4 18 43
1948239N20299 1948 54 NA NA NOT_NAMED 1948-09-02 21:00:00 ET 53.3512 -51.0075 main 317 317 P_____________ AL031948 53.3512 -51.0075 EX 50 -4 16 50
1948239N20299 1948 54 NA NA NOT_NAMED 1948-09-03 00:00:00 ET 53.8000 -50.0000 50 hurdat_atl main 384 384 O_____________ hurdat_atl AL031948 53.8000 -50.0000 EX 50 -4 16 51
1948239N20299 1948 54 NA NA NOT_NAMED 1948-09-03 03:00:00 ET 54.3417 -48.9204 main 463 463 P_____________ AL031948 54.3417 -48.9204 EX 50 -4 17 49
1948239N20299 1948 54 NA NA NOT_NAMED 1948-09-03 06:00:00 ET 54.9000 -47.8000 50 hurdat_atl main 547 521 O_____________ hurdat_atl AL031948 54.9000 -47.8000 EX 50 -4 17 50
1948239N20299 1948 54 NA NA NOT_NAMED 1948-09-03 09:00:00 ET 55.4572 -46.6337 main 509 445 P_____________ AL031948 55.4572 -46.6337 EX 50 -4 17 50
1948239N20299 1948 54 NA NA NOT_NAMED 1948-09-03 12:00:00 ET 56.0000 -45.5000 50 hurdat_atl main 444 387 O_____________ hurdat_atl AL031948 56.0000 -45.5000 EX 50 -4 16 49
1948239N20299 1948 54 NA NA NOT_NAMED 1948-09-03 15:00:00 ET 56.5066 -44.4518 main 387 338 P_____________ AL031948 56.5066 -44.4518 EX 50 -4 15 48
1948239N20299 1948 54 NA NA NOT_NAMED 1948-09-03 18:00:00 ET 57.0000 -43.5000 50 hurdat_atl main 338 288 O_____________ hurdat_atl AL031948 57.0000 -43.5000 EX 50 -4 14 45
1948239N20299 1948 54 NA NA NOT_NAMED 1948-09-03 21:00:00 ET 57.5063 -42.6320 main 289 243 P_____________ AL031948 57.5063 -42.6320 EX 47 -4 13 42
1948239N20299 1948 54 NA NA NOT_NAMED 1948-09-04 00:00:00 ET 58.0000 -41.8000 45 hurdat_atl main 243 219 O_____________ hurdat_atl AL031948 58.0000 -41.8000 EX 45 -4 13 44
1948239N20299 1948 54 NA NA NOT_NAMED 1948-09-04 03:00:00 ET 58.4570 -40.9049 main 216 213 P_____________ AL031948 58.4570 -40.9049 EX 45 -4 13 46
1948239N20299 1948 54 NA NA NOT_NAMED 1948-09-04 06:00:00 ET 58.9000 -40.0000 45 hurdat_atl main 218 216 O_____________ hurdat_atl AL031948 58.9000 -40.0000 EX 45 -4 13 45
1948239N20299 1948 54 NA NA NOT_NAMED 1948-09-04 09:00:00 ET 59.3559 -39.1415 main 235 235 P_____________ AL031948 59.3559 -39.1415 EX 42 -4 13 46
1948239N20299 1948 54 NA NA NOT_NAMED 1948-09-04 12:00:00 ET 59.8000 -38.2000 40 hurdat_atl main 269 269 O_____________ hurdat_atl AL031948 59.8000 -38.2000 EX 40 -4 13 50
1948239N20299 1948 54 NA NA NOT_NAMED 1948-09-04 15:00:00 ET 60.2130 -37.1089 main 313 313 P_____________ AL031948 60.2130 -37.1089 EX 40 -4 14 56
1948239N20299 1948 54 NA NA NOT_NAMED 1948-09-04 18:00:00 ET 60.6000 -35.8000 40 hurdat_atl main 361 361 O_____________ hurdat_atl AL031948 60.6000 -35.8000 EX 40 -4 16 61
1948239N20299 1948 54 NA NA NOT_NAMED 1948-09-04 21:00:00 ET 60.9616 -34.3031 main 425 425 P_____________ AL031948 60.9616 -34.3031 EX 37 -4 17 66
1948239N20299 1948 54 NA NA NOT_NAMED 1948-09-05 00:00:00 ET 61.3000 -32.5000 35 hurdat_atl main 486 463 O_____________ hurdat_atl AL031948 61.3000 -32.5000 EX 35 -4 20 71
1948239N20299 1948 54 NA NA NOT_NAMED 1948-09-05 03:00:00 ET 61.6060 -30.3726 main 459 343 P_____________ AL031948 61.6060 -30.3726 EX 35 -4 22 74
1948239N20299 1948 54 NA NA NOT_NAMED 1948-09-05 06:00:00 ET 61.9000 -28.0000 35 hurdat_atl main 339 232 O_____________ hurdat_atl AL031948 61.9000 -28.0000 EX 35 -4 23 75
1948239N20299 1948 54 NA NA NOT_NAMED 1948-09-05 09:00:00 ET 62.2008 -25.6076 main 228 145 P_____________ AL031948 62.2008 -25.6076 EX 32 -4 24 76
1948239N20299 1948 54 NA NA NOT_NAMED 1948-09-05 12:00:00 ET 62.5000 -23.0000 30 hurdat_atl main 144 77 O_____________ hurdat_atl AL031948 62.5000 -23.0000 EX 30 -4 26 77
1948239N20299 1948 54 NA NA NOT_NAMED 1948-09-05 15:00:00 ET 62.7755 -20.0979 main 77 55 P_____________ AL031948 62.7755 -20.0979 EX 30 -4 28 80
1948239N20299 1948 54 NA NA NOT_NAMED 1948-09-05 18:00:00 ET 63.0000 -17.0000 30 hurdat_atl main 81 O_____________ hurdat_atl AL031948 63.0000 -17.0000 EX 30 -4 28 81

IBTrACS Databaseについて

本データベースは、米国NOAAが公開する1842年以降の世界の熱帯低気圧のベストトラックデータアーカイブInternational Best Track Archive for Climate Stewardship (IBTrACS)を、ウェブで閲覧しやすい形式に変換したものです。

最終更新日:2021-10-21